• Join FlightAware (Why Join?)
  • Login
  • US Flag 
03:32PM EDT


 

Airport Tracker/Info


-or-


 

Live Flight TrackerFlight Track Log ✈ UPS1055 ✈ 01-Aug-2013 ✈ KMHT - KPHL

Flight Track Log - Related Links

Times and Time Zones

All times are in EDT time to prevent confusion due to time zone crossing. See the UPS1055 flight status page for this flight to view local times or setup timezone preferences in your user account.

Time Position Orientation Groundspeed Altitude Reporting Facility
EDT Latitude Longitude Course Direction KTS MPH feet Rate Location/Type
10:56PM 42.9190 -71.4260 163° South 155 178 1,300  Level FlightAware
10:56PM 42.8980 -71.4300 188° South 170 196 2,700 2,880 Climbing FlightAware
10:57PM 42.8800 -71.4370 196° South 185 213 3,700 3,120 Climbing FlightAware
10:57PM 42.8620 -71.4450 198° South 203 234 4,800 2,520 Climbing FlightAware
10:57PM 42.8380 -71.4540 195° South 237 273 5,600 2,220 Climbing FlightAware
10:58PM 42.8270 -71.4590 198° South 239 275 6,100 3,180 Climbing FlightAware
10:58PM 42.8040 -71.4700 199° South 256 295 7,200 3,120 Climbing FlightAware
10:58PM 42.7830 -71.4790 197° South 254 292 8,200 3,240 Climbing FlightAware
10:58PM 42.7640 -71.4850 193° South 265 305 9,100 2,400 Climbing FlightAware
10:59PM 42.7330 -71.4950 193° South 279 321 9,800 1,200 Climbing FlightAware
10:59PM 42.7080 -71.5020 192° South 279 321 10,000 180 Climbing FlightAware
11:00PM 42.6650 -71.5210 198° South 280 322 10,000  Level FlightAware
11:00PM 42.6170 -71.5470 202° Southwest 332 382 10,000  Level FlightAware
11:01PM 42.5980 -71.5630 212° Southwest 334 384 10,000  Level FlightAware
11:01PM 42.5800 -71.5960 233° Southwest 336 387 10,000 60 Level FlightAware
11:02PM 42.5820 -71.6810 272° West 332 382 10,100  Climbing FlightAware
11:02PM 42.5980 -71.7270 295° West 334 384 10,000 -120 Descending FlightAware
11:03PM 42.6270 -71.7890 302° West 325 374 10,000 480 Level FlightAware
11:03PM 42.6400 -71.8530 285° West 339 390 10,600 2,880 Climbing FlightAware
11:04PM 42.6610 -71.9240 292° West 318 366 13,300 3,840 Climbing FlightAware
11:04PM 42.6780 -71.9890 290° West 321 369 15,100 2,820 Climbing FlightAware
11:05PM 42.6950 -72.0580 289° West 331 381 16,600 2,340 Climbing FlightAware
11:05PM 42.7110 -72.1230 289° West 340 391 17,800 2,160 Climbing FlightAware
11:06PM 42.7290 -72.1990 288° West 347 399 19,100 2,040 Climbing FlightAware
11:07PM 42.7470 -72.2760 288° West 357 411 20,300 2,040 Climbing FlightAware
11:07PM 42.7660 -72.3530 289° West 363 418 21,600 2,100 Climbing FlightAware
11:08PM 42.7840 -72.4280 288° West 373 429 22,800 1,980 Climbing FlightAware
11:08PM 42.8010 -72.5040 287° West 380 437 23,900 900 Climbing FlightAware
11:09PM 42.8180 -72.5760 288° West 380 437 23,900 1,440 Level FlightAware
11:10PM 42.8410 -72.6820 287° West 379 436 25,900 3,240 Climbing FlightAware
11:10PM 42.8300 -72.6330 107° East 368 423 27,200 2,280 Climbing FlightAware
11:11PM 42.8210 -72.8080 266° West 380 437 27,800 480 Climbing FlightAware
11:11PM 42.8080 -72.8960 259° West 380 437 27,900 60 Climbing FlightAware
11:12PM 42.7980 -72.9690 259° West 380 437 27,900 60 Level FlightAware
11:13PM 42.7790 -73.1070 259° West 411 473 28,000 60 Climbing FlightAware
11:13PM 42.7680 -73.1850 259° West 411 473 28,000  Level FlightAware
11:14PM 42.7570 -73.2620 259° West 411 473 28,000  Level FlightAware
11:14PM 42.7450 -73.3400 258° West 411 473 28,000  Level FlightAware
11:15PM 42.7340 -73.4180 259° West 411 473 28,000  Level FlightAware
11:16PM 42.7230 -73.4960 259° West 411 473 28,000 -360 Level FlightAware
11:21PM 42.6050 -74.3270 259° West 409 471 26,000 -360 Descending FlightAware
11:21PM 42.5900 -74.4260 258° West 401 461 26,000  Level FlightAware
11:22PM 42.5790 -74.5020 259° West 397 457 26,000  Level FlightAware
11:22PM 42.5660 -74.5920 259° West 401 461 26,000  Level FlightAware
11:23PM 42.5530 -74.6780 258° West 401 461 26,000  Level FlightAware
11:24PM 42.5390 -74.7670 258° West 403 464 26,000  Level FlightAware
11:24PM 42.5260 -74.8560 259° West 406 467 26,000  Level FlightAware
11:25PM 42.5130 -74.9370 258° West 409 471 26,000  Level FlightAware
11:25PM 42.4970 -75.0370 258° West 411 473 26,000 -420 Level FlightAware
11:26PM 42.4850 -75.1180 259° West 413 475 25,500 -1,500 Descending FlightAware
11:27PM 42.4700 -75.2080 257° West 405 466 24,300 -2,100 Descending FlightAware
11:27PM 42.4470 -75.2950 250° West 389 448 23,000 -2,280 Descending FlightAware
11:28PM 42.4220 -75.3680 245° Southwest 377 434 21,700 -2,280 Descending FlightAware
11:28PM 42.3970 -75.4410 245° Southwest 365 420 20,400 -2,100 Descending FlightAware
11:29PM 42.3700 -75.5190 245° Southwest 358 412 19,200 -1,320 Descending FlightAware
11:29PM 42.3500 -75.5790 246° West 360 414 19,000 -180 Descending FlightAware
11:30PM 42.3260 -75.6480 245° Southwest 360 414 19,000  Level FlightAware
11:31PM 42.3040 -75.7110 245° Southwest 360 414 19,000  Level FlightAware
11:31PM 42.2610 -75.8330 245° Southwest 375 432 19,000  Level FlightAware
11:32PM 42.2380 -75.8970 244° Southwest 375 432 19,000  Level FlightAware
11:33PM 42.2150 -75.9620 244° Southwest 375 432 19,000  Level FlightAware
11:33PM 42.1910 -76.0260 243° Southwest 375 432 19,000  Level FlightAware
11:34PM 42.1680 -76.0900 244° Southwest 375 432 19,000  Level FlightAware
11:34PM 42.1450 -76.1550 245° Southwest 375 432 19,000  Level FlightAware
11:35PM 41.9739 -75.9764 245° Southwest 354 407 19,000  Level New York Center
11:36PM 41.8756 -75.9353 163° South 363 418 19,000  Level New York Center
11:37PM 41.7856 -75.8978 163° South 373 429 19,000 -600 Level New York Center
11:38PM 41.6894 -75.8597 164° South 367 422 17,900 -1,140 Descending New York Center
11:43PM 41.1930 -75.6770 164° South 332 382 12,100 -1,020 Descending FlightAware
11:44PM 41.1380 -75.6590 166° South 336 387 12,100  Level FlightAware
11:45PM 41.0838 -75.6406 166° South 343 395 12,100  Level FlightAware ADS-B
11:45PM 41.0385 -75.6253 166° South 330 380 12,100  Level FlightAware ADS-B
11:46PM 40.9938 -75.6105 166° South 331 381 12,100  Level FlightAware ADS-B
11:46PM 40.9494 -75.5960 166° South 328 377 12,100 -420 Level FlightAware ADS-B
11:47PM 40.9003 -75.5789 165° South 323 372 11,700 -780 Descending FlightAware ADS-B
11:47PM 40.8560 -75.5636 165° South 324 373 11,300 -900 Descending FlightAware ADS-B
11:48PM 40.8105 -75.5483 166° South 325 374 10,800 -1,020 Descending FlightAware ADS-B
11:48PM 40.7663 -75.5339 166° South 326 375 10,300 -720 Descending FlightAware ADS-B
11:49PM 40.7214 -75.5191 166° South 311 358 10,100 -240 Descending FlightAware ADS-B
11:49PM 40.6762 -75.5046 166° South 339 390 10,100  Level FlightAware ADS-B
11:50PM 40.6410 -75.4932 166° South 340 391 10,100  Level FlightAware ADS-B
11:50PM 40.5942 -75.4778 166° South 344 396 10,100  Level FlightAware ADS-B
11:51PM 40.5482 -75.4625 166° South 339 390 10,100  Level FlightAware ADS-B
11:51PM 40.5037 -75.4477 166° South 308 354 10,100  Level FlightAware ADS-B
11:52PM 40.4692 -75.4368 166° South 290 334 10,100  Level FlightAware ADS-B
11:52PM 40.4557 -75.4323 166° South 290 334 10,100  Level FlightAware ADS-B
11:52PM 40.4500 -75.4308 169° South 288 331 10,100  Level FlightAware ADS-B
11:52PM 40.4453 -75.4300 173° South 286 329 10,100  Level FlightAware ADS-B
11:52PM 40.4388 -75.4300 180° South 283 326 10,100  Level FlightAware ADS-B
11:52PM 40.4346 -75.4306 186° South 281 323 10,100  Level FlightAware ADS-B
11:52PM 40.4128 -75.4375 194° South 284 327 10,100  Level FlightAware ADS-B
11:53PM 40.3725 -75.4530 196° South 279 321 10,100  Level FlightAware ADS-B
11:53PM 40.3501 -75.4617 196° South 281 323 10,100  Level FlightAware ADS-B
11:54PM 40.3125 -75.4760 196° South 280 322 10,100 -120 Level FlightAware ADS-B
11:54PM 40.2763 -75.4896 196° South 277 319 10,000 -720 Descending FlightAware ADS-B
11:54PM 40.2558 -75.4972 196° South 276 318 9,600 -1,560 Descending FlightAware ADS-B
11:55PM 40.2371 -75.5039 195° South 279 321 9,200 -1,800 Descending FlightAware ADS-B
11:55PM 40.2182 -75.5109 196° South 280 322 8,700 -1,800 Descending FlightAware ADS-B
11:55PM 40.1993 -75.5179 196° South 281 323 8,300 -1,560 Descending FlightAware ADS-B
11:55PM 40.1804 -75.5251 196° South 282 325 7,900 -1,380 Descending FlightAware ADS-B
11:56PM 40.1612 -75.5326 197° South 281 323 7,600 -1,440 Descending FlightAware ADS-B
11:56PM 40.1423 -75.5399 196° South 279 321 7,200 -1,320 Descending FlightAware ADS-B
11:56PM 40.1266 -75.5459 196° South 279 321 7,000 -1,140 Descending FlightAware ADS-B
11:56PM 40.1219 -75.5475 195° South 279 321 6,900 -1,740 Descending FlightAware ADS-B
11:56PM 40.1169 -75.5488 191° South 281 323 6,800 -1,380 Descending FlightAware ADS-B
11:56PM 40.1113 -75.5496 186° South 283 326 6,700 -1,500 Descending FlightAware ADS-B
11:57PM 40.0911 -75.5497 180° South 283 326 6,300 -1,500 Descending FlightAware ADS-B
11:57PM 40.0681 -75.5490 179° South 282 325 5,900 -1,500 Descending FlightAware ADS-B
11:57PM 40.0482 -75.5483 178° South 282 325 5,500 -1,560 Descending FlightAware ADS-B
11:57PM 40.0272 -75.5477 179° South 283 326 5,100 -1,380 Descending FlightAware ADS-B
11:58PM 40.0073 -75.5470 178° South 283 326 4,800 -1,200 Descending FlightAware ADS-B
11:58PM 40.0008 -75.5467 178° South 283 326 4,700 -1,680 Descending FlightAware ADS-B
11:58PM 39.9925 -75.5456 174° South 283 326 4,500 -1,380 Descending FlightAware ADS-B
11:58PM 39.9728 -75.5411 170° South 282 325 4,200 -1,200 Descending FlightAware ADS-B
11:58PM 39.9530 -75.5360 169° South 280 322 3,900 -1,200 Descending FlightAware ADS-B
11:59PM 39.9340 -75.5307 168° South 278 320 3,600 -1,440 Descending FlightAware ADS-B
11:59PM 39.9152 -75.5253 168° South 272 313 3,200 -1,020 Descending FlightAware ADS-B
11:59PM 39.8970 -75.5203 168° South 261 300 3,100 -240 Descending FlightAware ADS-B
11:59PM 39.8798 -75.5156 168° South 240 276 3,100  Level FlightAware ADS-B
12:00AM 39.8651 -75.5116 168° South 228 262 3,100  Level FlightAware ADS-B
12:00AM 39.8610 -75.5103 166° South 226 260 3,100  Level FlightAware ADS-B
12:00AM 39.8577 -75.5089 162° South 225 259 3,100  Level FlightAware ADS-B
12:00AM 39.8542 -75.5068 155° Southeast 223 257 3,100  Level FlightAware ADS-B
12:00AM 39.8502 -75.5032 145° Southeast 221 254 3,100  Level FlightAware ADS-B
12:00AM 39.8478 -75.5004 138° Southeast 219 252 3,100  Level FlightAware ADS-B
12:00AM 39.8449 -75.4955 128° Southeast 214 246 3,100  Level FlightAware ADS-B
12:00AM 39.8432 -75.4915 119° Southeast 210 242 3,100  Level FlightAware ADS-B
12:00AM 39.8413 -75.4861 115° Southeast 205 236 3,100  Level FlightAware ADS-B
12:00AM 39.8361 -75.4691 112° Southeast 193 222 3,100  Level FlightAware ADS-B
12:01AM 39.8309 -75.4525 112° Southeast 180 207 3,100  Level FlightAware ADS-B
12:01AM 39.8300 -75.4490 109° East 178 205 3,100 -900 Level FlightAware ADS-B
12:01AM 39.8292 -75.4450 105° East 176 203 3,000 -780 Descending FlightAware ADS-B
12:01AM 39.8288 -75.4408 97° East 173 199 3,000 -720 Level FlightAware ADS-B
12:01AM 39.8290 -75.4360 87° East 172 198 2,900 -1,380 Descending FlightAware ADS-B
12:01AM 39.8296 -75.4314 80° East 171 197 2,800 -780 Descending FlightAware ADS-B
12:01AM 39.8302 -75.4279 77° East 171 197 2,800 -1,200 Level FlightAware ADS-B
12:01AM 39.8314 -75.4209 77° East 175 201 2,600 -1,320 Descending FlightAware ADS-B
12:01AM 39.8327 -75.4136 77° East 177 204 2,500 -840 Descending FlightAware ADS-B
12:01AM 39.8345 -75.4056 74° East 170 196 2,400 -1,140 Descending FlightAware ADS-B
12:02AM 39.8378 -75.3924 72° East 166 191 2,100 -1,500 Descending FlightAware ADS-B
12:02AM 39.8400 -75.3828 73° East 169 194 1,800 -1,260 Descending FlightAware ADS-B
12:02AM 39.8425 -75.3690 77° East 164 189 1,600 -1,020 Descending FlightAware ADS-B
12:02AM 39.8449 -75.3545 78° East 159 183 1,300 -1,080 Descending FlightAware ADS-B
12:02AM 39.8462 -75.3477 76° East 149 171 1,200 -840 Descending FlightAware ADS-B
12:03AM 39.8475 -75.3413 75° East 142 163 1,100 -540 Descending FlightAware ADS-B
12:03AM 39.8500 -75.3292 75° East 134 154 1,000 -540 Descending FlightAware ADS-B
12:03AM 39.8512 -75.3232 75° East 131 151 900 -900 Descending FlightAware ADS-B
12:03AM 39.8521 -75.3190 74° East 131 151 800 -1,020 Descending FlightAware ADS-B
12:03AM 39.8532 -75.3138 75° East 131 151 700 -600 Descending FlightAware ADS-B
12:03AM 39.8555 -75.3018 76° East 127 146 600 -360 Descending FlightAware ADS-B
12:04AM 39.8608 -75.2764 76° East 144 166 400 -360 Descending New York Center
12:06AM 39.8667 -75.2333 247° West  Level FlightAware Approximate